Time;durP1;ratioP1;P1;durP2;ratioP2;P2;SDS_P1;SDS_P2;PMS_P1;PMS_P2;Temp;Humidity;BMP_temperature;BMP_pressure;BME280_temperature;BME280_humidity;BME280_pressure;Samples;Min_cycle;Max_cycle;Signal;HPM_P1;HPM_P2
2021/04/02 04:02:39;;;;;;;2.97;2.78;;;3.80;99.90;;;;;;4924885;23;20371;-69
2021/04/02 04:05:07;;;;;;;2.85;2.60;;;3.80;99.90;;;;;;4898264;29;20203;-70
2021/04/02 04:07:34;;;;;;;2.90;2.80;;;3.70;99.90;;;;;;4900643;29;20289;-70
2021/04/02 04:10:01;;;;;;;2.67;2.58;;;3.70;99.90;;;;;;4900996;29;20213;-69
2021/04/02 04:12:28;;;;;;;4.70;2.88;;;3.70;99.90;;;;;;4899858;29;20227;-70
2021/04/02 04:14:56;;;;;;;2.97;2.88;;;3.70;99.90;;;;;;4900232;29;20311;-70
2021/04/02 04:17:23;;;;;;;2.88;2.70;;;3.60;99.90;;;;;;4900822;29;20234;-71
2021/04/02 04:19:52;;;;;;;4.40;3.40;;;3.60;99.90;;;;;;4899964;29;20699;-71
2021/04/02 04:22:19;;;;;;;3.67;3.15;;;3.50;99.90;;;;;;4898593;29;20255;-71
2021/04/02 04:24:48;;;;;;;3.97;3.67;;;3.50;99.90;;;;;;4900802;29;20211;-71
2021/04/02 04:27:15;;;;;;;3.22;3.03;;;3.50;99.90;;;;;;4898017;29;20692;-71
2021/04/02 04:29:44;;;;;;;2.70;2.50;;;3.50;99.90;;;;;;4902395;29;20207;-71
2021/04/02 04:32:16;;;;;;;2.40;2.30;;;3.40;99.90;;;;;;4901001;29;20567;-71
2021/04/02 04:34:44;;;;;;;2.75;2.55;;;3.40;99.90;;;;;;4901204;29;20211;-71
2021/04/02 04:37:13;;;;;;;2.40;2.30;;;3.40;99.90;;;;;;4902186;29;20226;-71
2021/04/02 04:39:43;;;;;;;2.20;2.10;;;3.30;99.90;;;;;;4902299;29;20295;-71
2021/04/02 04:42:12;;;;;;;4.10;3.40;;;3.30;99.90;;;;;;4900223;29;20235;-71
2021/04/02 04:44:40;;;;;;;3.35;3.15;;;3.30;99.90;;;;;;4905386;29;20228;-71
2021/04/02 04:47:07;;;;;;;3.38;3.08;;;3.30;99.90;;;;;;4904582;29;20207;-71
2021/04/02 04:49:33;;;;;;;3.75;3.40;;;3.30;99.90;;;;;;4907770;29;20215;-73
2021/04/02 04:52:01;;;;;;;3.22;3.03;;;3.20;99.90;;;;;;4907937;29;20250;-73
2021/04/02 04:54:31;;;;;;;3.15;2.95;;;3.20;99.90;;;;;;4903401;29;20279;-70
2021/04/02 04:56:59;;;;;;;3.38;2.78;;;3.20;99.90;;;;;;4903417;29;20204;-70
2021/04/02 04:59:27;;;;;;;2.70;2.50;;;3.20;99.90;;;;;;4900890;29;20223;-70
2021/04/02 05:01:55;;;;;;;3.00;2.80;;;3.30;99.90;;;;;;4903117;29;20242;-71
2021/04/02 05:04:23;;;;;;;2.80;2.60;;;3.30;99.90;;;;;;4900164;29;20231;-70
2021/04/02 05:06:54;;;;;;;3.17;2.95;;;3.30;99.90;;;;;;4899797;29;20211;-70
2021/04/02 05:09:24;;;;;;;2.97;2.78;;;3.30;99.90;;;;;;4900033;29;20582;-70
2021/04/02 05:11:53;;;;;;;3.50;3.40;;;3.40;99.90;;;;;;4898997;29;20219;-70
2021/04/02 05:14:20;;;;;;;2.97;2.78;;;3.40;99.90;;;;;;4900925;29;20541;-70
2021/04/02 05:16:48;;;;;;;3.30;2.75;;;3.50;99.90;;;;;;4901820;29;20207;-71
2021/04/02 05:19:16;;;;;;;3.05;2.85;;;3.50;99.90;;;;;;4902864;29;20257;-70
2021/04/02 05:21:43;;;;;;;2.72;2.60;;;3.50;99.90;;;;;;4904225;29;20726;-73
2021/04/02 05:24:11;;;;;;;3.67;3.35;;;3.50;99.90;;;;;;4905472;29;20497;-73
2021/04/02 05:26:37;;;;;;;3.08;2.88;;;3.60;99.90;;;;;;4907104;29;20212;-73
2021/04/02 05:29:05;;;;;;;2.60;2.40;;;3.80;99.90;;;;;;4905126;29;20207;-73
2021/04/02 05:31:32;;;;;;;4.63;3.05;;;3.90;99.90;;;;;;4905799;29;20602;-73
2021/04/02 05:33:58;;;;;;;2.80;2.65;;;3.90;99.90;;;;;;4904961;29;20222;-73
2021/04/02 05:36:24;;;;;;;5.80;2.50;;;3.90;99.90;;;;;;4905428;29;20206;-73
2021/04/02 05:38:51;;;;;;;2.88;2.60;;;3.90;99.90;;;;;;4905149;29;20314;-72
2021/04/02 05:41:21;;;;;;;3.22;3.03;;;4.00;99.90;;;;;;4899781;29;20235;-72
2021/04/02 05:43:54;;;;;;;2.85;2.75;;;4.10;99.90;;;;;;4900878;29;20207;-72
2021/04/02 05:46:24;;;;;;;3.80;3.00;;;4.10;99.90;;;;;;4901122;29;20250;-72
2021/04/02 05:48:59;;;;;;;11.15;3.45;;;4.10;99.90;;;;;;4901077;29;20203;-71
2021/04/02 05:51:26;;;;;;;3.67;3.38;;;4.20;99.90;;;;;;4901105;29;20547;-71
2021/04/02 05:53:54;;;;;;;3.10;2.90;;;4.30;99.90;;;;;;4900292;29;20210;-70
2021/04/02 05:56:21;;;;;;;3.85;3.55;;;4.30;99.90;;;;;;4900928;29;20207;-70
2021/04/02 05:58:47;;;;;;;3.20;3.00;;;4.30;99.90;;;;;;4900676;29;20211;-70
2021/04/02 06:01:14;;;;;;;3.58;3.30;;;4.40;99.90;;;;;;4901371;29;20238;-70
2021/04/02 06:03:42;;;;;;;5.35;4.30;;;4.40;99.90;;;;;;4905338;29;20238;-70
2021/04/02 06:06:12;;;;;;;8.13;6.53;;;4.50;99.90;;;;;;4902347;29;20221;-70
2021/04/02 06:08:42;;;;;;;13.52;8.63;;;4.50;99.90;;;;;;4902477;29;20683;-70
2021/04/02 06:11:08;;;;;;;15.07;9.45;;;4.50;99.90;;;;;;4903081;29;20378;-70
2021/04/02 06:13:34;;;;;;;18.98;9.70;;;4.50;99.90;;;;;;4898230;29;20583;-70
2021/04/02 06:16:01;;;;;;;14.43;9.75;;;4.50;99.90;;;;;;4899071;29;20207;-71
2021/04/02 06:18:27;;;;;;;14.40;9.95;;;4.50;99.90;;;;;;4903239;29;20215;-73
2021/04/02 06:20:56;;;;;;;15.23;10.57;;;4.50;99.90;;;;;;4904387;29;20615;-73
2021/04/02 06:23:23;;;;;;;26.63;12.27;;;4.60;99.90;;;;;;4899480;29;20235;-72
2021/04/02 06:25:51;;;;;;;15.55;12.38;;;4.60;99.90;;;;;;4898410;29;20208;-72
2021/04/02 06:28:21;;;;;;;18.70;12.60;;;4.60;99.90;;;;;;4897505;29;20215;-70
2021/04/02 06:30:51;;;;;;;21.10;13.63;;;4.70;99.90;;;;;;4898067;29;20235;-72
2021/04/02 06:33:17;;;;;;;18.33;15.18;;;4.80;99.90;;;;;;4898561;29;20207;-72
2021/04/02 06:35:44;;;;;;;18.98;14.50;;;4.80;99.90;;;;;;4897546;29;20199;-71
2021/04/02 06:38:11;;;;;;;18.15;14.40;;;4.80;99.90;;;;;;4897972;29;20274;-72
2021/04/02 06:40:39;;;;;;;19.75;15.30;;;4.80;99.90;;;;;;4897450;29;20231;-71
2021/04/02 06:43:05;;;;;;;22.52;16.38;;;4.80;99.90;;;;;;4897485;29;20716;-69
2021/04/02 06:45:32;;;;;;;26.35;17.30;;;4.80;99.90;;;;;;4897902;29;20207;-70
2021/04/02 06:48:13;;;;;;;22.20;17.00;;;4.80;99.90;;;;;;4898352;29;20207;-69
2021/04/02 06:50:40;;;;;;;20.80;15.85;;;4.80;99.90;;;;;;4902536;29;20644;-73
2021/04/02 06:53:06;;;;;;;22.52;16.33;;;4.90;99.90;;;;;;4901710;29;20267;-72
2021/04/02 06:55:38;;;;;;;22.27;15.05;;;4.90;99.90;;;;;;4901720;29;20210;-73
2021/04/02 06:58:10;;;;;;;20.33;15.45;;;4.90;99.90;;;;;;4902289;29;20207;-73
2021/04/02 07:00:39;;;;;;;20.20;14.98;;;4.90;99.90;;;;;;4901952;29;20581;-73
2021/04/02 07:03:08;;;;;;;18.58;14.73;;;5.00;99.90;;;;;;4903367;29;20237;-73
2021/04/02 07:05:35;;;;;;;19.45;13.38;;;5.00;99.90;;;;;;4902110;29;20210;-73
2021/04/02 07:08:04;;;;;;;20.23;13.85;;;5.10;99.90;;;;;;4902757;29;20302;-72
2021/04/02 07:10:32;;;;;;;17.63;11.80;;;5.10;99.90;;;;;;4902323;29;20245;-73
2021/04/02 07:13:02;;;;;;;17.05;12.23;;;5.10;99.90;;;;;;4898828;29;20215;-71
2021/04/02 07:15:31;;;;;;;15.55;11.30;;;5.10;99.90;;;;;;4900962;29;20203;-72
2021/04/02 07:17:59;;;;;;;17.05;10.35;;;5.10;99.90;;;;;;4901391;29;20278;-72
2021/04/02 07:20:26;;;;;;;25.02;12.35;;;5.10;99.90;;;;;;4898503;29;20371;-73
2021/04/02 07:22:53;;;;;;;19.95;11.25;;;5.10;99.90;;;;;;4901557;29;20230;-72
2021/04/02 07:25:19;;;;;;;18.50;11.35;;;5.10;99.90;;;;;;4900199;29;20207;-73
2021/04/02 07:27:46;;;;;;;21.50;12.48;;;5.20;99.90;;;;;;4900543;29;20314;-71
2021/04/02 07:30:16;;;;;;;22.50;12.93;;;5.20;99.90;;;;;;4900879;29;20267;-73
2021/04/02 07:32:45;;;;;;;20.00;12.10;;;5.30;99.90;;;;;;4896694;29;20204;-72
2021/04/02 07:35:16;;;;;;;20.15;12.85;;;5.40;99.90;;;;;;4900869;29;20218;-72
2021/04/02 07:37:47;;;;;;;22.73;12.27;;;5.50;99.90;;;;;;4901457;29;20215;-71
2021/04/02 07:40:15;;;;;;;21.00;13.23;;;5.60;99.90;;;;;;4904139;29;20202;-72
2021/04/02 07:42:48;;;;;;;25.95;12.43;;;5.70;99.90;;;;;;4903374;29;20219;-71
2021/04/02 07:45:19;;;;;;;20.10;12.05;;;5.80;99.90;;;;;;4885653;29;20506;-74
2021/04/02 07:47:51;;;;;;;20.52;13.05;;;5.90;99.90;;;;;;4882919;29;20275;-72
2021/04/02 07:50:33;;;;;;;17.65;9.95;;;6.10;99.90;;;;;;4897069;29;20259;-70
2021/04/02 07:53:00;;;;;;;14.27;8.63;;;6.30;99.90;;;;;;4896764;29;20234;-70
2021/04/02 07:55:26;;;;;;;12.90;8.23;;;6.30;99.90;;;;;;4896907;29;20713;-69
2021/04/02 07:57:55;;;;;;;9.52;7.10;;;6.40;99.90;;;;;;4896721;29;20239;-69
2021/04/02 08:00:27;;;;;;;9.80;6.50;;;6.40;99.90;;;;;;4897240;29;20207;-69
2021/04/02 08:03:11;;;;;;;7.32;5.75;;;6.40;99.90;;;;;;4896536;29;20219;-69
2021/04/02 08:05:38;;;;;;;8.10;5.15;;;6.40;99.90;;;;;;4895516;29;20215;-71
2021/04/02 08:08:09;;;;;;;8.93;4.63;;;6.40;99.90;;;;;;4894395;29;20229;-71
2021/04/02 08:10:37;;;;;;;6.25;5.10;;;6.40;99.90;;;;;;4878480;29;20235;-71
2021/04/02 08:13:16;;;;;;;9.50;6.45;;;6.40;99.90;;;;;;4879597;29;20208;-72
2021/04/02 08:15:44;;;;;;;5.90;4.65;;;6.50;99.90;;;;;;4892850;29;20266;-71
2021/04/02 08:18:19;;;;;;;8.38;4.75;;;6.60;99.90;;;;;;4900593;29;20592;-72
2021/04/02 08:20:50;;;;;;;5.10;4.20;;;6.70;99.90;;;;;;4902274;29;20235;-72
2021/04/02 08:23:17;;;;;;;10.68;4.45;;;6.80;99.90;;;;;;4902858;29;20330;-72
2021/04/02 08:25:44;;;;;;;4.88;4.55;;;6.90;99.90;;;;;;4897019;29;20215;-70
2021/04/02 08:28:11;;;;;;;5.38;4.28;;;7.00;99.90;;;;;;4896586;29;20271;-70
2021/04/02 08:30:39;;;;;;;3.38;3.15;;;7.10;99.90;;;;;;4896235;29;20235;-70
2021/04/02 08:33:07;;;;;;;3.13;2.70;;;7.10;99.90;;;;;;4896284;29;20196;-70
2021/04/02 08:35:35;;;;;;;6.07;2.70;;;7.20;99.90;;;;;;4895985;29;20246;-71
2021/04/02 08:38:04;;;;;;;4.75;2.80;;;7.30;99.90;;;;;;4896211;29;20211;-69
2021/04/02 08:40:31;;;;;;;3.55;2.70;;;7.50;99.90;;;;;;4896228;29;20231;-69
2021/04/02 08:43:01;;;;;;;3.10;2.83;;;7.50;99.90;;;;;;4894966;29;20219;-72
2021/04/02 08:45:33;;;;;;;2.95;2.63;;;7.60;99.90;;;;;;4896448;29;20214;-71
2021/04/02 08:47:59;;;;;;;2.65;2.45;;;7.70;99.90;;;;;;4896177;29;20342;-72
2021/04/02 08:50:26;;;;;;;3.00;2.00;;;7.80;99.90;;;;;;4897045;29;20234;-69
2021/04/02 08:53:02;;;;;;;3.30;3.10;;;7.80;99.90;;;;;;4899909;29;20207;-68
2021/04/02 08:55:28;;;;;;;7.85;3.40;;;7.90;99.90;;;;;;4899602;29;20226;-70
2021/04/02 08:57:54;;;;;;;6.28;2.95;;;8.00;99.90;;;;;;4899318;29;20207;-70
2021/04/02 09:00:23;;;;;;;3.10;2.80;;;8.30;99.90;;;;;;4899036;29;20294;-69
2021/04/02 09:02:49;;;;;;;2.45;2.25;;;8.30;99.90;;;;;;4899417;29;20228;-69
2021/04/02 09:05:16;;;;;;;6.97;3.15;;;8.40;99.90;;;;;;4898988;29;20211;-69
2021/04/02 09:07:43;;;;;;;2.90;2.63;;;8.50;99.90;;;;;;4899618;29;20215;-68
2021/04/02 09:10:13;;;;;;;6.95;2.58;;;8.50;99.90;;;;;;4894036;29;20227;-71
2021/04/02 09:12:44;;;;;;;3.10;2.90;;;8.60;99.90;;;;;;4898851;29;20214;-70
2021/04/02 09:15:17;;;;;;;5.70;2.47;;;8.60;99.90;;;;;;4899579;29;20578;-69
2021/04/02 09:17:43;;;;;;;3.40;3.20;;;8.40;99.90;;;;;;4899336;29;20251;-69
2021/04/02 09:20:11;;;;;;;5.22;2.75;;;8.40;99.90;;;;;;4898786;29;20211;-70
2021/04/02 09:22:37;;;;;;;3.50;3.15;;;8.50;99.90;;;;;;4898854;29;20242;-69
2021/04/02 09:25:07;;;;;;;7.35;2.83;;;8.60;99.90;;;;;;4898988;29;20215;-71
2021/04/02 09:27:39;;;;;;;3.65;3.13;;;8.70;99.90;;;;;;4898824;29;20247;-71
2021/04/02 09:30:07;;;;;;;5.97;2.75;;;8.90;99.90;;;;;;4899218;29;20211;-71
2021/04/02 09:32:34;;;;;;;4.07;2.70;;;8.90;99.90;;;;;;4898352;29;20203;-71
2021/04/02 09:35:03;;;;;;;6.68;2.97;;;9.00;99.90;;;;;;4898132;29;20556;-71
2021/04/02 09:37:30;;;;;;;4.03;2.53;;;9.00;99.90;;;;;;4898467;29;20223;-69
2021/04/02 09:40:00;;;;;;;2.65;2.25;;;9.00;99.90;;;;;;4903023;29;20211;-72
2021/04/02 09:42:28;;;;;;;4.75;2.45;;;9.00;99.90;;;;;;4901456;29;20242;-71
2021/04/02 09:45:01;;;;;;;5.60;2.70;;;9.10;99.90;;;;;;4902133;29;20513;-71
2021/04/02 09:47:27;;;;;;;4.20;2.92;;;9.00;99.90;;;;;;4881469;29;20260;-71
2021/04/02 09:49:55;;;;;;;9.38;2.78;;;9.00;99.90;;;;;;4893354;29;20535;-71
2021/04/02 09:52:21;;;;;;;7.03;2.70;;;9.00;99.90;;;;;;4899578;29;20224;-72
2021/04/02 09:54:49;;;;;;;3.22;2.50;;;9.00;99.90;;;;;;4899752;29;20632;-71
2021/04/02 09:57:16;;;;;;;6.47;2.80;;;9.10;99.90;;;;;;4899810;29;20235;-71
2021/04/02 09:59:43;;;;;;;2.97;2.30;;;9.10;99.90;;;;;;4900485;29;20610;-72
2021/04/02 10:02:10;;;;;;;6.65;4.07;;;9.20;99.90;;;;;;4899831;29;20235;-72
2021/04/02 10:04:36;;;;;;;5.93;2.97;;;9.10;99.90;;;;;;4899153;29;20308;-70
2021/04/02 10:07:03;;;;;;;6.95;2.70;;;9.10;99.90;;;;;;4897761;29;20219;-70
2021/04/02 10:09:29;;;;;;;2.80;2.28;;;9.10;99.90;;;;;;4897962;29;20211;-70
2021/04/02 10:11:55;;;;;;;5.38;2.50;;;9.10;99.90;;;;;;4894045;29;20236;-70
2021/04/02 10:14:22;;;;;;;5.25;2.58;;;9.20;99.90;;;;;;4891961;29;20226;-69
2021/04/02 10:16:49;;;;;;;2.85;1.80;;;9.20;99.90;;;;;;4894224;29;20220;-69
2021/04/02 10:19:16;;;;;;;4.30;2.65;;;9.10;99.90;;;;;;4892335;29;20211;-70
2021/04/02 10:21:42;;;;;;;13.55;3.70;;;9.10;99.90;;;;;;4895440;29;20326;-70
2021/04/02 10:24:10;;;;;;;10.50;3.13;;;9.00;99.90;;;;;;4897450;29;20345;-70
2021/04/02 10:26:36;;;;;;;3.88;2.45;;;8.90;99.90;;;;;;4897194;29;20215;-70
2021/04/02 10:29:03;;;;;;;5.65;2.95;;;8.90;99.90;;;;;;4897898;29;20263;-70
2021/04/02 10:31:30;;;;;;;4.32;2.65;;;8.80;99.90;;;;;;4897133;29;20299;-69
2021/04/02 10:33:57;;;;;;;4.22;2.45;;;8.80;99.90;;;;;;4896582;29;20207;-69
2021/04/02 10:36:23;;;;;;;8.70;2.88;;;8.80;99.90;;;;;;4897608;29;20215;-70
2021/04/02 10:38:49;;;;;;;6.68;3.08;;;8.90;99.90;;;;;;4897656;29;20605;-70
2021/04/02 10:41:16;;;;;;;5.97;2.90;;;8.90;99.90;;;;;;4894896;29;20242;-71
2021/04/02 10:43:42;;;;;;;4.03;3.10;;;8.90;99.90;;;;;;4897374;29;20223;-71
2021/04/02 10:46:09;;;;;;;6.65;2.67;;;9.00;99.90;;;;;;4895327;29;20207;-70
2021/04/02 10:48:35;;;;;;;3.75;3.25;;;8.90;99.90;;;;;;4896073;29;20306;-70
2021/04/02 10:51:03;;;;;;;2.53;2.42;;;8.90;99.90;;;;;;4891205;29;20231;-70
2021/04/02 10:53:29;;;;;;;3.85;3.25;;;8.80;99.90;;;;;;4896541;29;20672;-70
2021/04/02 10:56:00;;;;;;;3.92;2.30;;;8.80;99.90;;;;;;4896697;29;20249;-71
2021/04/02 10:58:28;;;;;;;5.63;2.63;;;8.70;99.90;;;;;;4896657;29;20659;-70
2021/04/02 11:00:54;;;;;;;5.65;3.05;;;8.80;99.90;;;;;;4897804;29;20231;-70
2021/04/02 11:03:20;;;;;;;7.07;3.17;;;8.70;99.90;;;;;;4897911;29;20215;-70
2021/04/02 11:05:46;;;;;;;6.18;2.65;;;8.70;99.90;;;;;;4898429;29;20687;-72
2021/04/02 11:08:14;;;;;;;4.60;3.72;;;8.70;99.90;;;;;;4897874;29;20212;-72
2021/04/02 11:10:40;;;;;;;7.60;2.85;;;8.70;99.90;;;;;;4897669;29;20237;-73
2021/04/02 11:13:06;;;;;;;6.47;3.30;;;8.60;99.90;;;;;;4897334;29;20210;-72
2021/04/02 11:15:32;;;;;;;5.95;3.40;;;8.60;99.90;;;;;;4896261;29;20207;-72
2021/04/02 11:17:59;;;;;;;2.92;2.65;;;8.60;99.90;;;;;;4896948;29;20226;-72
2021/04/02 11:20:28;;;;;;;6.18;2.65;;;8.60;99.90;;;;;;4896249;29;20215;-71
2021/04/02 11:22:55;;;;;;;6.05;3.38;;;8.60;99.90;;;;;;4896793;29;20261;-70
2021/04/02 11:25:22;;;;;;;7.93;4.00;;;8.50;99.90;;;;;;4896520;29;20218;-71
2021/04/02 11:27:49;;;;;;;4.50;3.28;;;8.50;99.90;;;;;;4896594;29;20204;-70
2021/04/02 11:30:17;;;;;;;7.90;3.30;;;8.60;99.90;;;;;;4896429;29;20218;-70
2021/04/02 11:32:44;;;;;;;3.35;3.05;;;8.60;99.90;;;;;;4896439;29;20221;-70
2021/04/02 11:35:12;;;;;;;2.70;2.50;;;8.50;99.90;;;;;;4895390;29;20745;-70
2021/04/02 11:37:39;;;;;;;7.70;3.13;;;8.60;99.90;;;;;;4896364;29;20569;-70
2021/04/02 11:40:06;;;;;;;4.45;2.28;;;8.70;99.90;;;;;;4896904;29;20211;-70
2021/04/02 11:42:33;;;;;;;7.25;3.33;;;8.50;99.90;;;;;;4896232;29;20233;-70
2021/04/02 11:45:00;;;;;;;3.05;2.47;;;8.50;99.90;;;;;;4893885;29;20208;-70
2021/04/02 11:47:26;;;;;;;2.67;2.28;;;8.60;99.90;;;;;;4895979;29;20211;-70
2021/04/02 11:49:52;;;;;;;5.97;2.55;;;8.70;99.90;;;;;;4895613;29;20302;-71
2021/04/02 11:52:19;;;;;;;7.35;2.63;;;8.70;99.90;;;;;;4895859;29;20223;-70
2021/04/02 11:54:45;;;;;;;2.58;2.40;;;8.70;99.90;;;;;;4896858;29;20203;-70
2021/04/02 11:57:11;;;;;;;5.53;2.67;;;8.60;99.90;;;;;;4896665;29;20536;-70
2021/04/02 11:59:38;;;;;;;2.92;2.28;;;8.70;99.90;;;;;;4893414;29;20700;-70
2021/04/02 12:02:05;;;;;;;9.27;2.60;;;8.70;99.90;;;;;;4895988;29;20636;-71
2021/04/02 12:04:31;;;;;;;4.55;1.75;;;8.70;99.90;;;;;;4895928;29;20221;-70
2021/04/02 12:06:58;;;;;;;5.70;2.40;;;8.70;99.90;;;;;;4897328;29;20223;-70
2021/04/02 12:09:24;;;;;;;4.90;2.10;;;8.70;99.90;;;;;;4897447;29;20211;-69
2021/04/02 12:11:51;;;;;;;11.18;2.88;;;8.80;99.90;;;;;;4897634;29;20563;-69
2021/04/02 12:14:17;;;;;;;5.72;2.10;;;8.80;99.90;;;;;;4894048;29;20207;-71
2021/04/02 12:16:44;;;;;;;9.95;2.65;;;9.00;99.90;;;;;;4898216;29;20676;-72
2021/04/02 12:19:11;;;;;;;1.73;1.58;;;9.00;99.90;;;;;;4898659;29;20963;-71
2021/04/02 12:21:37;;;;;;;7.28;1.85;;;9.10;99.90;;;;;;4898907;29;20223;-71
2021/04/02 12:24:05;;;;;;;6.00;2.47;;;8.90;99.90;;;;;;4899219;29;20234;-72
2021/04/02 12:26:31;;;;;;;3.25;2.05;;;8.90;99.90;;;;;;4903083;29;20316;-71
2021/04/02 12:28:58;;;;;;;3.92;2.40;;;8.90;99.90;;;;;;4904361;29;20291;-72
2021/04/02 12:31:24;;;;;;;3.60;2.55;;;8.90;99.90;;;;;;4901067;29;20235;-72
2021/04/02 12:33:51;;;;;;;3.95;2.22;;;8.80;99.90;;;;;;4890489;29;20291;-71
2021/04/02 12:36:18;;;;;;;2.25;2.15;;;8.80;99.90;;;;;;4902220;29;20261;-72
2021/04/02 12:38:44;;;;;;;7.05;2.67;;;8.80;99.90;;;;;;4901048;29;20204;-72
2021/04/02 12:41:11;;;;;;;3.65;2.15;;;8.80;99.90;;;;;;4900764;29;20231;-72
2021/04/02 12:43:37;;;;;;;5.72;2.03;;;8.80;99.90;;;;;;4901870;29;20223;-72
2021/04/02 12:46:03;;;;;;;6.15;3.53;;;8.80;99.90;;;;;;4901910;29;20215;-72
2021/04/02 12:48:29;;;;;;;2.22;2.00;;;8.80;99.90;;;;;;4900432;29;20612;-72
2021/04/02 12:50:58;;;;;;;3.53;2.08;;;8.80;99.90;;;;;;4900318;29;20226;-71
2021/04/02 12:53:25;;;;;;;7.13;3.72;;;8.80;99.90;;;;;;4887432;29;20680;-72
2021/04/02 12:55:51;;;;;;;2.53;2.25;;;8.80;99.90;;;;;;4882805;29;20222;-71
2021/04/02 12:58:18;;;;;;;1.80;1.70;;;8.80;99.90;;;;;;4882997;29;20224;-71
2021/04/02 13:00:45;;;;;;;3.53;2.28;;;9.00;99.90;;;;;;4894394;29;20231;-71
2021/04/02 13:03:12;;;;;;;3.42;2.20;;;9.10;99.90;;;;;;4898877;29;20233;-71
2021/04/02 13:05:38;;;;;;;3.83;2.20;;;9.20;99.90;;;;;;4898647;29;20223;-71
2021/04/02 13:08:07;;;;;;;2.33;2.22;;;9.50;99.90;;;;;;4901217;29;20556;-71
2021/04/02 13:10:33;;;;;;;3.97;1.60;;;9.70;99.90;;;;;;4900281;29;20238;-71
2021/04/02 13:12:59;;;;;;;1.58;1.48;;;9.80;99.90;;;;;;4899662;29;20199;-71
2021/04/02 13:15:26;;;;;;;5.18;1.98;;;9.80;99.90;;;;;;4882498;29;20264;-71
2021/04/02 13:17:52;;;;;;;3.92;1.80;;;9.80;99.90;;;;;;4892593;29;20668;-71
2021/04/02 13:20:20;;;;;;;2.05;1.85;;;9.70;99.90;;;;;;4899198;29;20211;-71
2021/04/02 13:22:47;;;;;;;2.83;2.17;;;9.40;99.90;;;;;;4896487;29;20349;-72
2021/04/02 13:25:14;;;;;;;6.72;2.47;;;9.30;99.90;;;;;;4893583;29;20606;-71
2021/04/02 13:27:41;;;;;;;4.15;2.20;;;9.20;99.90;;;;;;4893598;29;20211;-70
2021/04/02 13:30:09;;;;;;;5.95;2.70;;;9.10;99.90;;;;;;4894835;29;20237;-71
2021/04/02 13:32:38;;;;;;;1.90;1.80;;;9.20;99.90;;;;;;4907986;29;20214;-71
2021/04/02 13:35:05;;;;;;;3.50;1.70;;;9.20;99.90;;;;;;4916435;29;20215;-71
2021/04/02 13:37:31;;;;;;;2.50;2.10;;;9.20;99.90;;;;;;4904128;29;20215;-71
2021/04/02 13:39:58;;;;;;;2.38;1.75;;;9.20;99.90;;;;;;4899270;29;20226;-71
2021/04/02 13:42:25;;;;;;;1.73;1.60;;;9.30;99.90;;;;;;4897689;29;20238;-71
2021/04/02 13:44:51;;;;;;;2.72;1.90;;;9.40;99.90;;;;;;4898660;29;20211;-71
2021/04/02 13:47:17;;;;;;;2.38;2.10;;;9.60;99.90;;;;;;4898696;29;20704;-71
2021/04/02 13:49:44;;;;;;;3.55;1.65;;;9.70;99.90;;;;;;4898571;29;20255;-71
2021/04/02 13:52:10;;;;;;;4.03;2.55;;;9.70;99.90;;;;;;4898363;29;20231;-69
2021/04/02 13:54:36;;;;;;;4.90;1.80;;;9.60;99.90;;;;;;4898629;29;20756;-69
2021/04/02 13:57:03;;;;;;;6.07;2.40;;;9.40;99.90;;;;;;4890231;29;20664;-69
2021/04/02 13:59:30;;;;;;;3.10;2.10;;;9.30;99.90;;;;;;4899007;29;20230;-69
2021/04/02 14:01:57;;;;;;;3.85;1.65;;;9.20;99.90;;;;;;4897704;29;20239;-69
2021/04/02 14:04:23;;;;;;;2.70;1.70;;;9.00;99.90;;;;;;4897813;29;20227;-69
2021/04/02 14:06:49;;;;;;;3.60;1.63;;;8.90;99.90;;;;;;4898272;29;20351;-69
2021/04/02 14:09:15;;;;;;;5.00;1.95;;;8.90;99.90;;;;;;4898345;29;20362;-69
2021/04/02 14:11:44;;;;;;;3.72;2.67;;;8.80;99.90;;;;;;4897709;29;20223;-69
2021/04/02 14:14:10;;;;;;;4.05;1.65;;;8.70;99.90;;;;;;4882981;29;20223;-71
2021/04/02 14:16:37;;;;;;;2.67;1.83;;;8.60;99.90;;;;;;4883683;29;20711;-71
2021/04/02 14:19:04;;;;;;;4.25;1.15;;;8.50;99.90;;;;;;4897615;29;20218;-69
2021/04/02 14:21:30;;;;;;;4.68;1.70;;;8.50;99.90;;;;;;4897693;29;20231;-70
2021/04/02 14:23:56;;;;;;;4.45;2.20;;;8.40;99.90;;;;;;4897947;29;20231;-70
2021/04/02 14:26:23;;;;;;;2.45;1.85;;;8.40;99.90;;;;;;4897808;29;20594;-70
2021/04/02 14:28:49;;;;;;;3.53;1.65;;;8.40;99.90;;;;;;4898005;29;20664;-70
2021/04/02 14:31:15;;;;;;;6.53;1.95;;;8.40;99.90;;;;;;4897798;29;20707;-69
2021/04/02 14:33:42;;;;;;;1.50;1.38;;;8.40;99.90;;;;;;4897390;29;20262;-69
2021/04/02 14:36:09;;;;;;;1.70;1.58;;;8.40;99.90;;;;;;4897681;29;20237;-69
2021/04/02 14:38:35;;;;;;;4.10;1.90;;;8.40;99.90;;;;;;4897695;29;20275;-69
2021/04/02 14:41:01;;;;;;;2.05;1.95;;;8.40;99.90;;;;;;4898638;29;20556;-69
2021/04/02 14:43:27;;;;;;;3.60;2.40;;;8.40;99.90;;;;;;4896964;29;20223;-69
2021/04/02 14:45:53;;;;;;;1.85;1.38;;;8.50;99.90;;;;;;4898113;29;20635;-69
2021/04/02 14:48:20;;;;;;;2.15;1.52;;;8.60;99.90;;;;;;4897086;29;20751;-69
2021/04/02 14:50:47;;;;;;;3.90;1.13;;;8.60;99.90;;;;;;4894952;29;20300;-70
2021/04/02 14:53:13;;;;;;;2.08;1.88;;;8.60;99.90;;;;;;4897593;29;20262;-69
2021/04/02 14:55:39;;;;;;;1.60;1.50;;;8.60;99.90;;;;;;4898384;29;20218;-71
2021/04/02 14:58:06;;;;;;;2.33;1.25;;;8.60;99.90;;;;;;4898318;29;20294;-71
2021/04/02 15:00:33;;;;;;;1.63;1.10;;;8.60;99.90;;;;;;4898578;29;20235;-70
2021/04/02 15:03:00;;;;;;;2.03;1.70;;;8.50;99.90;;;;;;4899460;29;20254;-70
2021/04/02 15:05:26;;;;;;;2.15;1.67;;;8.50;99.90;;;;;;4899318;29;20238;-70
2021/04/02 15:07:54;;;;;;;2.97;1.35;;;8.50;99.90;;;;;;4898463;29;20211;-68
2021/04/02 15:10:22;;;;;;;2.47;2.35;;;8.50;99.90;;;;;;4889124;29;20211;-69
2021/04/02 15:12:48;;;;;;;1.70;1.60;;;8.40;99.90;;;;;;4896303;29;20199;-68
2021/04/02 15:15:18;;;;;;;3.70;2.45;;;8.40;99.90;;;;;;4897081;29;20680;-69
2021/04/02 15:17:44;;;;;;;8.75;2.35;;;8.30;99.90;;;;;;4896951;29;20282;-69
2021/04/02 15:20:12;;;;;;;4.53;2.10;;;8.30;99.90;;;;;;4897061;29;20238;-68
2021/04/02 15:22:38;;;;;;;2.50;2.30;;;8.30;99.90;;;;;;4896818;29;20278;-67
2021/04/02 15:25:07;;;;;;;1.73;1.63;;;8.30;99.90;;;;;;4897117;29;20282;-67
2021/04/02 15:27:36;;;;;;;2.80;2.25;;;8.40;99.90;;;;;;4897067;29;20211;-67
2021/04/02 15:30:03;;;;;;;3.88;3.60;;;8.50;99.90;;;;;;4891393;29;20215;-66
2021/04/02 15:32:29;;;;;;;4.75;2.67;;;8.60;99.90;;;;;;4889752;29;20230;-66
2021/04/02 15:34:56;;;;;;;7.85;2.67;;;8.60;99.90;;;;;;4897146;29;20211;-66
2021/04/02 15:37:22;;;;;;;7.68;2.75;;;8.60;99.90;;;;;;4897445;29;20569;-65
2021/04/02 15:39:48;;;;;;;2.33;2.15;;;8.70;99.90;;;;;;4896792;29;20257;-66
2021/04/02 15:42:16;;;;;;;4.85;2.35;;;8.80;99.90;;;;;;4879461;29;20231;-66
2021/04/02 15:44:42;;;;;;;5.65;3.10;;;8.90;99.90;;;;;;4896728;29;20544;-66
2021/04/02 15:47:14;;;;;;;3.95;2.65;;;8.80;99.90;;;;;;4896401;29;20222;-66
2021/04/02 15:49:41;;;;;;;5.50;2.28;;;8.80;99.90;;;;;;4881323;29;20211;-66
2021/04/02 15:52:07;;;;;;;4.10;2.53;;;8.90;99.90;;;;;;4896556;29;20306;-66
2021/04/02 15:54:35;;;;;;;2.60;2.40;;;9.00;99.90;;;;;;4897975;29;20211;-66
2021/04/02 15:57:01;;;;;;;6.38;2.63;;;9.00;99.90;;;;;;4896753;29;20203;-67
2021/04/02 15:59:28;;;;;;;5.00;2.65;;;9.00;99.90;;;;;;4897134;29;20556;-67
2021/04/02 16:01:54;;;;;;;4.88;1.92;;;9.00;99.90;;;;;;4900604;29;20242;-67
2021/04/02 16:04:21;;;;;;;3.45;2.47;;;9.00;99.90;;;;;;4901370;29;20678;-67
2021/04/02 16:06:47;;;;;;;3.47;2.50;;;9.00;99.90;;;;;;4902592;29;20287;-67
2021/04/02 16:09:14;;;;;;;3.08;2.70;;;9.10;99.90;;;;;;4899811;29;20225;-68
2021/04/02 16:11:41;;;;;;;14.73;4.05;;;9.10;99.90;;;;;;4886822;29;20232;-67
2021/04/02 16:14:08;;;;;;;6.40;3.60;;;9.10;99.90;;;;;;4895885;29;20219;-68
2021/04/02 16:16:36;;;;;;;9.07;3.45;;;9.00;99.90;;;;;;4900869;29;20234;-68
2021/04/02 16:19:02;;;;;;;4.93;3.20;;;9.00;99.90;;;;;;4899823;29;20236;-68
2021/04/02 16:21:29;;;;;;;3.60;3.13;;;9.00;99.90;;;;;;4900176;29;20722;-67
2021/04/02 16:23:56;;;;;;;5.70;2.95;;;9.00;99.90;;;;;;4895824;29;20246;-68
2021/04/02 16:26:22;;;;;;;7.07;3.33;;;9.00;99.90;;;;;;4895239;29;20904;-68
2021/04/02 16:28:49;;;;;;;7.80;3.33;;;9.00;99.90;;;;;;4900451;29;20207;-68
2021/04/02 16:31:16;;;;;;;6.20;4.03;;;8.90;99.90;;;;;;4898449;29;20235;-67
2021/04/02 16:33:43;;;;;;;15.02;3.92;;;9.00;99.90;;;;;;4900134;29;20207;-67
2021/04/02 16:36:09;;;;;;;4.45;3.50;;;8.90;99.90;;;;;;4898646;29;20215;-67
2021/04/02 16:38:37;;;;;;;9.60;3.80;;;8.90;99.90;;;;;;4899997;29;20211;-68
2021/04/02 16:41:04;;;;;;;7.80;4.38;;;8.80;99.90;;;;;;4899575;29;20322;-68
2021/04/02 16:43:30;;;;;;;5.55;3.63;;;8.80;99.90;;;;;;4893465;29;20664;-67
2021/04/02 16:45:57;;;;;;;5.55;4.10;;;8.70;99.90;;;;;;4900159;29;20207;-68
2021/04/02 16:48:23;;;;;;;5.38;3.95;;;8.70;99.90;;;;;;4899702;29;20222;-67
2021/04/02 16:50:50;;;;;;;6.60;3.40;;;8.70;99.90;;;;;;4899033;29;20231;-68
2021/04/02 16:53:16;;;;;;;4.38;3.67;;;8.70;99.90;;;;;;4899104;29;20309;-68
2021/04/02 16:55:42;;;;;;;5.95;3.83;;;8.70;99.90;;;;;;4899664;29;20219;-67
2021/04/02 16:58:09;;;;;;;8.52;4.00;;;8.80;99.90;;;;;;4899557;29;20207;-67